Startpagina
METAR-TAF:

METAR-TAF

Vliegvelden :

Andahuaylas, Peru

breedte: 13-43S, lengte: 073-21W, hoogte: 3444 m

Actueel weer

Dit bericht is 5 uur en het 52 minuten geleden gemaakt, om 19:00 UTC
Wind 11 kt uit het noordnoordoosten, variërend tussen het noordnoordwesten en het noordoosten
Temperatuur 10°C
Vochtigheid 82%
Druk 1036 hPa
Zicht: 8000 m
Verspreide wolken op 1200 ft, Stapelwolken.
Gebroken wolken op 5000 ft
buien in de omgeving

METAR: SPHY 191900Z 02011KT 340V040 8000 VCSH SCT012TCU BKN050 10/07 Q1036 RMK BIRD HAZARD RWY03/21 PP000

Tijdstip: 19:52 (00:52 UTC)

Verwachting

Dit bericht is 7 uur en het 52 minuten geleden gemaakt, om 17:00 UTC
Verwachting geldig van 19 om 18 UTC tot 20 om 18 UTC
Wind 7 kt uit het noorden
Zicht: 8000 m
Verspreide wolken op 1200 ft
Gebroken wolken op 5000 ft

TAF: SPHY 191700Z 1918/2018 01007KT 8000 SCT012 BKN050 TX14/1919Z TN00/2011Z

Waarnemingen en weersverwachtingen van meer dan 4000 vliegvelden (METAR en TAF).

De beschikbare stations zijn de gele en rode punten op de kaart.

Ga met uw muis naar het station om de naam te zien.

Klik dan om waarnemingen en weersverwachtingen te zien.

kaart wijzigen: klik op de groene knoppen met een zwart kruis om in te zoomen, op de groene knop met een streepje om uit te zoomen of op de groene pijlen voor aangrenzende kaarten.


METAR-TAF: